Time;durP1;ratioP1;P1;durP2;ratioP2;P2;SDS_P1;SDS_P2;PMS_P1;PMS_P2;Temp;Humidity;BMP_temperature;BMP_pressure;BME280_temperature;BME280_humidity;BME280_pressure;Samples;Min_cycle;Max_cycle;Signal;HPM_P1;HPM_P2
2021/04/18 00:01:35;;;;;;;15.40;11.90;;;9.60;53.50;;;;;;5032318;28;20064;-82
2021/04/18 00:04:00;;;;;;;16.20;12.47;;;9.50;53.50;;;;;;5024812;28;20465;-82
2021/04/18 00:06:26;;;;;;;17.37;12.77;;;9.50;53.60;;;;;;5022354;28;20021;-83
2021/04/18 00:08:52;;;;;;;19.13;12.47;;;9.50;53.60;;;;;;5032879;28;20018;-82
2021/04/18 00:11:19;;;;;;;14.80;11.87;;;9.50;53.70;;;;;;5030197;28;20079;-83
2021/04/18 00:13:45;;;;;;;15.53;11.70;;;9.50;53.80;;;;;;5025885;28;20121;-82
2021/04/18 00:16:13;;;;;;;16.23;12.87;;;9.50;53.90;;;;;;5033565;28;20120;-82
2021/04/18 00:18:39;;;;;;;17.07;12.40;;;9.50;54.00;;;;;;5034370;28;20018;-82
2021/04/18 00:21:05;;;;;;;17.17;12.37;;;9.50;54.00;;;;;;5032714;28;20362;-82
2021/04/18 00:23:30;;;;;;;19.97;12.63;;;9.50;54.10;;;;;;5032644;28;20029;-82
2021/04/18 00:25:56;;;;;;;18.03;13.50;;;9.40;54.00;;;;;;5032713;28;20052;-82
2021/04/18 00:28:22;;;;;;;17.77;12.70;;;9.30;54.20;;;;;;5032746;28;20033;-82
2021/04/18 00:30:50;;;;;;;17.07;13.23;;;9.40;54.30;;;;;;5028693;28;20034;-83
2021/04/18 00:33:16;;;;;;;16.70;12.53;;;9.40;54.30;;;;;;5015217;28;20092;-82
2021/04/18 00:35:41;;;;;;;18.23;12.37;;;9.40;54.30;;;;;;5022252;28;20018;-83
2021/04/18 00:38:07;;;;;;;18.00;13.20;;;9.40;54.30;;;;;;5024740;28;20381;-82
2021/04/18 00:40:33;;;;;;;18.87;14.37;;;9.40;54.30;;;;;;5033610;28;20104;-82
2021/04/18 00:42:59;;;;;;;20.03;13.40;;;9.30;54.20;;;;;;5030456;28;20128;-83
2021/04/18 00:45:25;;;;;;;19.07;13.80;;;9.20;54.50;;;;;;5016977;28;21458;-82
2021/04/18 00:47:52;;;;;;;17.50;13.33;;;9.20;54.90;;;;;;5032161;28;20052;-82
2021/04/18 00:50:27;;;;;;;19.17;13.33;;;9.20;54.80;;;;;;5027865;28;20080;-83
2021/04/18 00:52:53;;;;;;;18.13;13.53;;;9.30;54.80;;;;;;5033327;28;20585;-82
2021/04/18 00:55:23;;;;;;;21.53;14.97;;;9.20;54.80;;;;;;5031569;28;20056;-82
2021/04/18 00:57:49;;;;;;;21.03;14.00;;;9.30;55.00;;;;;;5033378;28;20025;-82
2021/04/18 01:00:15;;;;;;;19.50;13.60;;;9.30;54.90;;;;;;5032436;28;20075;-83
2021/04/18 01:02:41;;;;;;;19.77;13.60;;;9.20;54.80;;;;;;5031980;28;20472;-83
2021/04/18 01:05:07;;;;;;;18.20;14.17;;;9.20;55.00;;;;;;5033960;28;20152;-83
2021/04/18 01:07:35;;;;;;;19.83;13.80;;;9.30;55.00;;;;;;5023627;28;20025;-83
2021/04/18 01:10:03;;;;;;;20.37;14.53;;;9.20;55.00;;;;;;5025034;28;20421;-82
2021/04/18 01:12:29;;;;;;;20.80;13.97;;;9.20;55.20;;;;;;5023434;28;20029;-83
2021/04/18 01:14:54;;;;;;;23.70;14.93;;;9.00;55.10;;;;;;5030022;28;20037;-83
2021/04/18 01:17:20;;;;;;;18.90;14.03;;;9.00;55.40;;;;;;5030620;28;20071;-83
2021/04/18 01:19:46;;;;;;;22.77;14.43;;;9.10;55.40;;;;;;5030584;28;20190;-83
2021/04/18 01:22:11;;;;;;;21.93;14.13;;;9.10;55.30;;;;;;5030859;28;20032;-83
2021/04/18 01:24:37;;;;;;;18.57;14.10;;;9.00;55.50;;;;;;5025642;28;20715;-82
2021/04/18 01:27:05;;;;;;;19.53;14.97;;;9.10;55.50;;;;;;5032399;28;20056;-82
2021/04/18 01:29:32;;;;;;;21.83;15.13;;;9.10;55.50;;;;;;5030467;28;20026;-83
2021/04/18 01:31:58;;;;;;;18.50;14.53;;;9.10;55.60;;;;;;5042100;28;20036;-82
2021/04/18 01:34:24;;;;;;;19.70;13.93;;;9.00;55.60;;;;;;5030738;28;20025;-83
2021/04/18 01:36:50;;;;;;;20.27;14.03;;;9.10;55.70;;;;;;5027126;28;20080;-83
2021/04/18 01:39:16;;;;;;;16.43;13.13;;;9.00;55.60;;;;;;5028639;28;20067;-83
2021/04/18 01:41:45;;;;;;;19.37;14.23;;;9.10;55.70;;;;;;5031620;28;20053;-82
2021/04/18 01:44:14;;;;;;;21.43;14.57;;;9.10;56.00;;;;;;5033542;28;20028;-82
2021/04/18 01:46:45;;;;;;;24.80;15.53;;;9.10;55.40;;;;;;5031463;28;20017;-82
2021/04/18 01:49:11;;;;;;;21.03;15.03;;;9.10;55.60;;;;;;5038230;28;20072;-83
2021/04/18 01:51:37;;;;;;;17.90;14.03;;;9.00;55.50;;;;;;5026532;28;20032;-83
2021/04/18 01:54:04;;;;;;;21.00;15.00;;;9.00;55.80;;;;;;5022302;28;20482;-82
2021/04/18 01:56:31;;;;;;;23.00;15.87;;;9.00;56.40;;;;;;5021370;28;20025;-82
2021/04/18 01:58:57;;;;;;;21.83;15.33;;;8.90;55.90;;;;;;5022633;28;20029;-82
2021/04/18 02:01:23;;;;;;;21.00;15.87;;;9.00;56.00;;;;;;5032139;28;20495;-83
2021/04/18 02:03:49;;;;;;;19.00;14.57;;;9.00;56.00;;;;;;5031420;28;20030;-82
2021/04/18 02:06:14;;;;;;;23.53;15.60;;;9.00;55.90;;;;;;5031810;28;20018;-83
2021/04/18 02:08:40;;;;;;;23.10;15.47;;;9.00;56.00;;;;;;5025002;28;20072;-83
2021/04/18 02:11:06;;;;;;;21.10;15.47;;;8.90;56.20;;;;;;5028277;28;20070;-83
2021/04/18 02:13:32;;;;;;;18.90;15.40;;;8.90;56.30;;;;;;5029311;28;20072;-83
2021/04/18 02:15:58;;;;;;;20.83;16.33;;;8.80;56.40;;;;;;5029166;28;20428;-83
2021/04/18 02:18:24;;;;;;;23.77;16.73;;;8.90;56.50;;;;;;5028630;28;20469;-82
2021/04/18 02:20:50;;;;;;;20.30;16.00;;;8.80;56.50;;;;;;5030672;28;20026;-83
2021/04/18 02:23:25;;;;;;;25.00;17.67;;;8.90;56.70;;;;;;5030590;28;20027;-83
2021/04/18 02:25:52;;;;;;;24.93;19.07;;;8.90;56.80;;;;;;5030747;28;20029;-82
2021/04/18 02:28:17;;;;;;;21.80;15.93;;;8.90;56.70;;;;;;5023943;28;20017;-83
2021/04/18 02:30:43;;;;;;;19.83;14.80;;;8.90;56.80;;;;;;5035913;28;20025;-82
2021/04/18 02:33:09;;;;;;;26.03;17.93;;;8.90;56.70;;;;;;5035770;28;20026;-83
2021/04/18 02:35:35;;;;;;;23.37;17.20;;;8.90;56.70;;;;;;5022062;28;20034;-83
2021/04/18 02:38:00;;;;;;;23.87;17.37;;;8.90;56.70;;;;;;5016759;28;20029;-83
2021/04/18 02:40:26;;;;;;;30.07;21.33;;;8.90;56.70;;;;;;5028686;28;20555;-82
2021/04/18 02:42:52;;;;;;;24.93;17.47;;;8.90;56.80;;;;;;5033499;28;20025;-83
2021/04/18 02:45:18;;;;;;;25.67;17.77;;;8.90;56.80;;;;;;5029795;28;20553;-82
2021/04/18 02:47:44;;;;;;;22.13;15.13;;;8.90;56.80;;;;;;5030922;28;20024;-83
2021/04/18 02:50:10;;;;;;;22.90;16.73;;;8.90;56.90;;;;;;5034030;28;20021;-84
2021/04/18 02:52:36;;;;;;;24.33;16.50;;;8.80;56.90;;;;;;5034623;28;20030;-82
2021/04/18 02:55:02;;;;;;;22.50;15.63;;;8.90;57.00;;;;;;5029541;28;20045;-84
2021/04/18 02:57:28;;;;;;;20.67;15.37;;;8.90;57.00;;;;;;5031792;28;20033;-84
2021/04/18 02:59:54;;;;;;;21.47;15.37;;;8.80;57.00;;;;;;5033157;28;20116;-84
2021/04/18 03:02:20;;;;;;;20.00;15.40;;;8.80;57.00;;;;;;5030723;28;20074;-83
2021/04/18 03:04:46;;;;;;;24.90;17.60;;;8.80;56.90;;;;;;5033903;28;20025;-84
2021/04/18 03:07:12;;;;;;;23.63;17.17;;;8.80;57.00;;;;;;5017624;28;20022;-84
2021/04/18 03:09:38;;;;;;;23.60;16.60;;;8.80;57.00;;;;;;5030931;28;20389;-83
2021/04/18 03:12:04;;;;;;;28.70;19.27;;;8.80;57.00;;;;;;5033728;28;20025;-84
2021/04/18 03:14:30;;;;;;;38.63;21.80;;;8.80;56.90;;;;;;5031763;28;20087;-84
2021/04/18 03:16:55;;;;;;;30.00;20.83;;;8.80;56.90;;;;;;5034449;28;20061;-84
2021/04/18 03:19:21;;;;;;;25.33;17.90;;;8.90;56.90;;;;;;5032739;28;20029;-84
2021/04/18 03:21:47;;;;;;;23.50;16.53;;;8.90;56.90;;;;;;5023802;28;20040;-84
2021/04/18 03:24:13;;;;;;;20.13;15.47;;;8.90;57.10;;;;;;5029310;28;20108;-84
2021/04/18 03:26:39;;;;;;;18.93;14.70;;;8.80;57.20;;;;;;5034884;28;20025;-84
2021/04/18 03:29:05;;;;;;;23.53;17.30;;;8.80;57.30;;;;;;5034160;28;20028;-84
2021/04/18 03:31:31;;;;;;;22.83;16.57;;;8.80;57.30;;;;;;5033050;28;20768;-84
2021/04/18 03:33:57;;;;;;;23.53;16.97;;;8.80;57.50;;;;;;5031628;28;20029;-83
2021/04/18 03:36:22;;;;;;;26.43;18.07;;;8.80;57.40;;;;;;5029180;28;20030;-84
2021/04/18 03:38:48;;;;;;;22.77;16.40;;;8.80;57.40;;;;;;5028406;28;20030;-84
2021/04/18 03:41:14;;;;;;;22.33;15.93;;;8.70;58.10;;;;;;5033342;28;20029;-84
2021/04/18 03:43:40;;;;;;;23.63;17.10;;;8.80;57.70;;;;;;5035229;28;20417;-84
2021/04/18 03:46:05;;;;;;;22.80;16.43;;;8.70;57.70;;;;;;5015942;28;20022;-84
2021/04/18 03:48:31;;;;;;;24.03;16.37;;;8.80;57.80;;;;;;5024136;28;20025;-84
2021/04/18 03:50:57;;;;;;;23.33;17.53;;;8.80;57.80;;;;;;5032923;28;20112;-84
2021/04/18 03:53:22;;;;;;;24.23;17.97;;;8.80;57.90;;;;;;5027608;28;20478;-84
2021/04/18 03:55:48;;;;;;;24.23;17.27;;;8.70;57.90;;;;;;5029197;28;20405;-84
2021/04/18 03:58:14;;;;;;;22.60;16.50;;;8.70;58.00;;;;;;5033068;28;20033;-84
2021/04/18 04:00:40;;;;;;;24.07;16.93;;;8.80;58.10;;;;;;5032971;28;20477;-84
2021/04/18 04:03:05;;;;;;;24.63;17.03;;;8.80;58.20;;;;;;5035249;28;20075;-84
2021/04/18 04:05:31;;;;;;;23.33;17.00;;;8.70;58.20;;;;;;5034990;28;20033;-84
2021/04/18 04:07:57;;;;;;;22.73;16.77;;;8.80;58.20;;;;;;5033219;28;20456;-84
2021/04/18 04:10:22;;;;;;;22.90;17.00;;;8.80;58.30;;;;;;5032065;28;20428;-84
2021/04/18 04:12:48;;;;;;;24.00;17.20;;;8.80;58.20;;;;;;5014018;28;20474;-84
2021/04/18 04:15:14;;;;;;;24.23;16.27;;;8.80;58.20;;;;;;5017609;28;20387;-84
2021/04/18 04:17:40;;;;;;;20.03;16.20;;;8.80;58.10;;;;;;5024139;28;20044;-84
2021/04/18 04:20:06;;;;;;;23.53;17.53;;;8.80;58.10;;;;;;5026052;28;20036;-84
2021/04/18 04:22:32;;;;;;;23.03;16.53;;;8.80;58.10;;;;;;5032129;28;20029;-84
2021/04/18 04:24:58;;;;;;;23.93;16.83;;;8.80;58.20;;;;;;5031633;28;20492;-83
2021/04/18 04:27:24;;;;;;;23.23;16.97;;;8.80;58.20;;;;;;5032283;28;20408;-84
2021/04/18 04:29:51;;;;;;;25.70;17.57;;;8.80;58.20;;;;;;5033533;28;20047;-84
2021/04/18 04:32:17;;;;;;;24.50;17.60;;;8.80;58.40;;;;;;5027653;28;20021;-84
2021/04/18 04:34:43;;;;;;;23.77;16.33;;;8.70;58.50;;;;;;5024424;28;20402;-84
2021/04/18 04:37:08;;;;;;;26.27;17.47;;;8.70;58.60;;;;;;5023072;28;20029;-84
2021/04/18 04:39:34;;;;;;;23.30;17.80;;;8.70;58.70;;;;;;5030327;28;20037;-84
2021/04/18 04:42:01;;;;;;;24.47;17.53;;;8.70;58.80;;;;;;5032707;28;20029;-84
2021/04/18 04:44:29;;;;;;;23.03;16.60;;;8.70;58.70;;;;;;5016307;28;20084;-84
2021/04/18 04:46:55;;;;;;;22.83;16.57;;;8.70;58.80;;;;;;5019248;28;20025;-84
2021/04/18 04:49:21;;;;;;;22.57;16.83;;;8.70;59.00;;;;;;5031185;28;20497;-84
2021/04/18 04:51:47;;;;;;;23.57;16.67;;;8.70;59.00;;;;;;5031137;28;20025;-84
2021/04/18 04:54:13;;;;;;;21.33;16.23;;;8.70;58.90;;;;;;5023124;28;20045;-83
2021/04/18 04:56:38;;;;;;;23.27;17.47;;;8.70;58.90;;;;;;5024563;28;20068;-84
2021/04/18 04:59:04;;;;;;;21.37;16.47;;;8.70;58.90;;;;;;5021175;28;20083;-84
2021/04/18 05:01:30;;;;;;;22.67;16.80;;;8.70;58.90;;;;;;5025910;28;20026;-84
2021/04/18 05:03:56;;;;;;;22.40;16.73;;;8.70;58.90;;;;;;5028227;28;20029;-84
2021/04/18 05:06:21;;;;;;;25.37;17.37;;;8.70;59.00;;;;;;5032931;28;20770;-84
2021/04/18 05:08:47;;;;;;;25.90;17.17;;;8.70;59.00;;;;;;5030179;28;20068;-84
2021/04/18 05:11:13;;;;;;;24.47;17.27;;;8.70;59.00;;;;;;5024663;28;20028;-84
2021/04/18 05:13:39;;;;;;;25.73;18.33;;;8.80;58.80;;;;;;5020399;28;20025;-84
2021/04/18 05:16:05;;;;;;;27.17;18.27;;;8.80;58.70;;;;;;5026816;28;20025;-84
2021/04/18 05:18:31;;;;;;;24.70;18.40;;;8.80;58.70;;;;;;5024352;28;20034;-84
2021/04/18 05:20:57;;;;;;;26.27;18.50;;;8.70;58.70;;;;;;5023701;28;20590;-83
2021/04/18 05:23:22;;;;;;;24.80;17.90;;;8.80;58.90;;;;;;5027314;28;20067;-84
2021/04/18 05:25:48;;;;;;;25.43;18.67;;;8.70;58.90;;;;;;5025411;28;20029;-84
2021/04/18 05:28:14;;;;;;;24.97;18.53;;;8.70;59.00;;;;;;5024834;28;20049;-84
2021/04/18 05:30:39;;;;;;;27.80;18.73;;;8.70;59.00;;;;;;5015361;28;20074;-84
2021/04/18 05:33:06;;;;;;;26.90;19.43;;;8.70;58.90;;;;;;5026391;28;20360;-84
2021/04/18 05:35:32;;;;;;;26.53;18.90;;;8.70;58.80;;;;;;5025917;28;20030;-84
2021/04/18 05:37:58;;;;;;;25.77;19.10;;;8.80;58.80;;;;;;5025313;28;20025;-84
2021/04/18 05:40:24;;;;;;;25.20;18.37;;;8.80;58.70;;;;;;5021124;28;20116;-84
2021/04/18 05:42:50;;;;;;;26.93;19.33;;;8.80;58.70;;;;;;5023066;28;20160;-84
2021/04/18 05:45:16;;;;;;;27.73;19.00;;;8.80;58.70;;;;;;5019214;28;20440;-84
2021/04/18 05:47:42;;;;;;;27.83;20.47;;;8.90;58.70;;;;;;5027465;28;20021;-84
2021/04/18 05:50:08;;;;;;;27.67;20.43;;;8.90;58.70;;;;;;5028850;28;20022;-84
2021/04/18 05:52:34;;;;;;;27.47;19.67;;;8.80;58.80;;;;;;5028725;28;20037;-84
2021/04/18 05:54:59;;;;;;;26.27;19.83;;;8.80;58.70;;;;;;5025686;28;20045;-84
2021/04/18 05:57:25;;;;;;;28.60;20.27;;;8.90;58.80;;;;;;5023738;28;20030;-84
2021/04/18 05:59:51;;;;;;;27.10;19.77;;;8.90;58.80;;;;;;5013631;28;20029;-84
2021/04/18 06:02:17;;;;;;;30.10;19.50;;;8.90;58.70;;;;;;5027367;28;20112;-84
2021/04/18 06:04:43;;;;;;;26.47;19.73;;;9.00;58.70;;;;;;5013959;28;20065;-84
2021/04/18 06:07:09;;;;;;;30.67;20.77;;;9.00;58.60;;;;;;5032514;28;20477;-84
2021/04/18 06:09:35;;;;;;;27.20;20.27;;;9.00;58.50;;;;;;5030605;28;20036;-84
2021/04/18 06:12:00;;;;;;;28.00;20.23;;;9.00;58.50;;;;;;5030525;28;20033;-84
2021/04/18 06:14:26;;;;;;;29.50;21.40;;;9.00;58.50;;;;;;5030905;28;20061;-84
2021/04/18 06:16:52;;;;;;;32.10;22.33;;;9.00;58.60;;;;;;5033039;28;20049;-84
2021/04/18 06:19:18;;;;;;;29.23;21.47;;;9.10;58.50;;;;;;5031579;28;20032;-84
2021/04/18 06:21:44;;;;;;;24.67;19.53;;;9.10;58.50;;;;;;5031769;28;20546;-84
2021/04/18 06:24:10;;;;;;;31.57;20.43;;;9.10;58.60;;;;;;5031441;28;20033;-84
2021/04/18 06:26:36;;;;;;;26.60;19.50;;;9.10;58.60;;;;;;5030938;28;20029;-84
2021/04/18 06:29:02;;;;;;;32.40;20.40;;;9.10;58.60;;;;;;5026666;28;20026;-84
2021/04/18 06:31:27;;;;;;;26.80;17.93;;;9.10;58.50;;;;;;5020623;28;20049;-84
2021/04/18 06:33:53;;;;;;;27.30;19.30;;;9.10;58.50;;;;;;5024918;28;20033;-84
2021/04/18 06:36:19;;;;;;;28.53;18.83;;;9.10;58.60;;;;;;5023485;28;20036;-84
2021/04/18 06:38:45;;;;;;;30.60;20.73;;;9.10;58.70;;;;;;5021822;28;20022;-84
2021/04/18 06:41:20;;;;;;;32.10;19.63;;;9.20;58.70;;;;;;5020819;28;20040;-84
2021/04/18 06:43:47;;;;;;;23.20;17.77;;;9.20;58.80;;;;;;5030103;28;20034;-84
2021/04/18 06:46:17;;;;;;;28.33;19.43;;;9.20;58.80;;;;;;5029801;28;20497;-84
2021/04/18 06:48:44;;;;;;;25.67;19.07;;;9.20;59.50;;;;;;5030189;28;20053;-84
2021/04/18 06:51:10;;;;;;;26.23;18.87;;;9.20;59.10;;;;;;5014701;28;20551;-84
2021/04/18 06:53:36;;;;;;;29.13;20.60;;;9.20;59.20;;;;;;5024660;28;20025;-83
2021/04/18 06:56:04;;;;;;;27.23;20.73;;;9.20;59.20;;;;;;5023460;28;20535;-84
2021/04/18 06:58:31;;;;;;;26.83;19.83;;;9.20;59.30;;;;;;5029549;28;20045;-84
2021/04/18 07:00:57;;;;;;;30.67;20.77;;;9.30;59.30;;;;;;5029503;28;20465;-84
2021/04/18 07:03:23;;;;;;;28.17;20.27;;;9.30;59.40;;;;;;5022389;28;20390;-83
2021/04/18 07:05:50;;;;;;;27.13;20.40;;;9.30;59.40;;;;;;5023427;28;20038;-84
2021/04/18 07:08:27;;;;;;;25.97;19.53;;;9.30;59.50;;;;;;5026468;28;20528;-84
2021/04/18 07:11:12;;;;;;;29.50;21.23;;;9.30;59.60;;;;;;5029555;28;20026;-84
2021/04/18 07:13:38;;;;;;;27.57;19.13;;;9.30;59.70;;;;;;5017863;28;20375;-84
2021/04/18 07:16:27;;;;;;;28.47;20.73;;;9.40;59.70;;;;;;5034169;28;20045;-84
2021/04/18 07:18:54;;;;;;;34.20;23.30;;;9.40;59.60;;;;;;5028732;28;20517;-84
2021/04/18 07:21:21;;;;;;;34.23;24.30;;;9.30;59.60;;;;;;5024075;28;20026;-84
2021/04/18 07:23:47;;;;;;;37.63;28.17;;;9.40;59.80;;;;;;5032244;28;20033;-84
2021/04/18 07:26:27;;;;;;;31.93;23.17;;;9.40;59.70;;;;;;5033262;28;20026;-84
2021/04/18 07:29:12;;;;;;;59.53;32.30;;;9.30;59.80;;;;;;5025410;28;20112;-84
2021/04/18 07:31:38;;;;;;;74.17;37.30;;;9.30;60.00;;;;;;5028241;28;20034;-84
2021/04/18 07:34:05;;;;;;;69.10;35.20;;;9.30;60.20;;;;;;5032468;28;20083;-84
2021/04/18 07:36:31;;;;;;;52.63;30.10;;;9.40;60.10;;;;;;5027988;28;20040;-84
2021/04/18 07:38:58;;;;;;;50.37;30.80;;;9.40;60.10;;;;;;5025960;28;20029;-85
2021/04/18 07:41:24;;;;;;;49.83;32.03;;;9.50;60.10;;;;;;5032722;28;20500;-84
2021/04/18 07:43:51;;;;;;;37.93;27.50;;;9.50;60.10;;;;;;5033292;28;20029;-84
2021/04/18 07:46:18;;;;;;;32.50;24.53;;;9.50;60.00;;;;;;5029835;28;20058;-84
2021/04/18 07:48:45;;;;;;;31.77;22.43;;;9.50;60.10;;;;;;5028284;28;20036;-84
2021/04/18 07:51:11;;;;;;;32.77;22.30;;;9.60;60.10;;;;;;5033185;28;20079;-84
2021/04/18 07:53:37;;;;;;;31.63;23.73;;;9.60;60.10;;;;;;5033789;28;20064;-85
2021/04/18 07:56:14;;;;;;;31.80;24.93;;;9.60;60.10;;;;;;5032390;28;20029;-84
2021/04/18 07:58:41;;;;;;;38.17;25.40;;;9.70;60.30;;;;;;5032704;28;20470;-84
2021/04/18 08:01:08;;;;;;;31.60;24.07;;;9.70;60.40;;;;;;5032445;28;20026;-85
2021/04/18 08:03:35;;;;;;;31.27;23.13;;;9.70;60.60;;;;;;5025017;28;20444;-84
2021/04/18 08:06:01;;;;;;;29.90;23.27;;;9.70;60.50;;;;;;5027827;28;20079;-84
2021/04/18 08:08:42;;;;;;;32.60;24.37;;;9.80;60.60;;;;;;5025204;28;20061;-84
2021/04/18 08:11:14;;;;;;;29.20;20.67;;;9.80;60.70;;;;;;5031144;28;20032;-84
2021/04/18 08:13:43;;;;;;;32.93;23.07;;;9.80;60.70;;;;;;5027155;28;20541;-85
2021/04/18 08:16:10;;;;;;;30.57;22.97;;;9.90;60.50;;;;;;5027804;28;20021;-84
2021/04/18 08:18:42;;;;;;;27.67;22.27;;;9.90;60.70;;;;;;5025520;28;20397;-84
2021/04/18 08:21:37;;;;;;;29.88;22.65;;;10.00;60.70;;;;;;5030695;28;20032;-84
2021/04/18 08:24:08;;;;;;;29.53;21.83;;;10.00;60.70;;;;;;5025556;28;22308;-84
2021/04/18 08:26:35;;;;;;;32.67;23.40;;;10.00;60.50;;;;;;5024094;28;20033;-84
2021/04/18 08:29:09;;;;;;;30.70;22.23;;;10.00;60.30;;;;;;5031193;28;20025;-84
2021/04/18 08:31:54;;;;;;;32.70;22.77;;;10.10;60.40;;;;;;5029708;28;20485;-84
2021/04/18 08:34:26;;;;;;;29.33;22.90;;;10.10;60.50;;;;;;5031604;28;20025;-84
2021/04/18 08:36:54;;;;;;;34.17;24.50;;;10.10;60.20;;;;;;5030937;28;20052;-84
2021/04/18 08:39:28;;;;;;;32.23;24.47;;;10.10;60.30;;;;;;5029084;28;20401;-84
2021/04/18 08:41:59;;;;;;;31.50;23.83;;;10.20;60.30;;;;;;5031814;28;20052;-84
2021/04/18 08:44:29;;;;;;;35.37;25.27;;;10.20;60.70;;;;;;5024684;28;20034;-85
2021/04/18 08:47:04;;;;;;;32.83;24.90;;;10.30;60.10;;;;;;5030825;28;20021;-85
2021/04/18 08:49:40;;;;;;;30.93;22.20;;;10.30;60.20;;;;;;5026771;28;20470;-85
2021/04/18 08:52:11;;;;;;;32.57;23.77;;;10.30;60.00;;;;;;5013069;28;20065;-84
2021/04/18 08:54:42;;;;;;;36.33;26.83;;;10.30;59.90;;;;;;5023722;28;20139;-85
2021/04/18 08:57:29;;;;;;;35.53;25.10;;;10.30;60.00;;;;;;5031705;28;20112;-85
2021/04/18 08:59:57;;;;;;;33.23;24.77;;;10.30;59.80;;;;;;5026519;28;20164;-85
2021/04/18 09:02:28;;;;;;;32.80;25.37;;;10.40;59.80;;;;;;5028713;28;20032;-85
2021/04/18 09:04:57;;;;;;;32.53;22.70;;;10.30;59.80;;;;;;5025213;28;20029;-85
2021/04/18 09:07:29;;;;;;;31.67;23.47;;;10.30;59.80;;;;;;5021849;28;20029;-85
2021/04/18 09:10:00;;;;;;;30.23;23.23;;;10.40;59.60;;;;;;5028709;28;21628;-85
2021/04/18 09:12:27;;;;;;;28.73;21.93;;;10.40;59.50;;;;;;5031056;28;20025;-85
2021/04/18 09:14:53;;;;;;;31.30;24.17;;;10.40;60.00;;;;;;5025900;28;20433;-85
2021/04/18 09:17:24;;;;;;;34.00;24.33;;;10.40;59.30;;;;;;5027947;28;20393;-84
2021/04/18 09:20:01;;;;;;;30.60;23.93;;;10.40;59.20;;;;;;5026637;28;20022;-84
2021/04/18 09:22:30;;;;;;;31.17;24.03;;;10.50;59.30;;;;;;5031252;28;20035;-85
2021/04/18 09:24:57;;;;;;;29.93;22.73;;;10.50;59.10;;;;;;5017284;28;20025;-84
2021/04/18 09:27:39;;;;;;;28.50;21.87;;;10.40;59.00;;;;;;5033347;28;20083;-85
2021/04/18 09:30:08;;;;;;;26.93;20.17;;;10.50;58.80;;;;;;5023379;28;20025;-85
2021/04/18 09:32:45;;;;;;;28.53;20.30;;;10.50;58.70;;;;;;5031351;28;20022;-85
2021/04/18 09:35:13;;;;;;;21.80;18.33;;;10.60;58.50;;;;;;5025851;28;20029;-85
2021/04/18 09:37:41;;;;;;;24.77;19.03;;;10.70;58.30;;;;;;5024790;28;20025;-85
2021/04/18 09:40:11;;;;;;;26.10;19.50;;;10.70;58.00;;;;;;5030720;28;20426;-85
2021/04/18 09:42:41;;;;;;;28.93;18.80;;;10.80;57.80;;;;;;5031561;28;20033;-85
2021/04/18 09:45:07;;;;;;;27.20;19.80;;;10.80;57.70;;;;;;5031891;28;20029;-85
2021/04/18 09:47:32;;;;;;;28.10;19.80;;;10.90;57.50;;;;;;5026627;28;20026;-85
2021/04/18 09:50:01;;;;;;;22.70;18.10;;;11.00;57.20;;;;;;5027240;28;20071;-85
2021/04/18 09:52:29;;;;;;;23.13;18.80;;;11.10;56.90;;;;;;5026344;28;20049;-85
2021/04/18 09:55:19;;;;;;;21.13;17.27;;;11.20;56.70;;;;;;5028666;28;20038;-85
2021/04/18 09:57:51;;;;;;;23.03;16.37;;;11.40;56.30;;;;;;5036716;28;20034;-85
2021/04/18 10:00:24;;;;;;;21.33;16.73;;;11.50;56.20;;;;;;5027786;28;20387;-84
2021/04/18 10:03:00;;;;;;;22.63;17.30;;;11.60;56.00;;;;;;5029688;28;20516;-84
2021/04/18 10:05:28;;;;;;;19.77;17.13;;;11.70;55.50;;;;;;5030406;28;20092;-84
2021/04/18 10:08:13;;;;;;;19.77;15.97;;;11.80;55.30;;;;;;5031002;28;20025;-84
2021/04/18 10:10:39;;;;;;;19.47;16.93;;;11.90;54.90;;;;;;5027393;28;20022;-84
2021/04/18 10:13:05;;;;;;;19.50;15.77;;;12.00;54.50;;;;;;5025906;28;20100;-85
2021/04/18 10:15:31;;;;;;;20.60;16.00;;;12.10;54.00;;;;;;5028678;28;20072;-85
2021/04/18 10:17:56;;;;;;;18.13;14.57;;;12.20;53.90;;;;;;5030390;28;20052;-85
2021/04/18 10:20:26;;;;;;;19.20;15.33;;;12.40;53.90;;;;;;5029394;28;20026;-85
2021/04/18 10:23:08;;;;;;;17.57;14.63;;;12.70;53.30;;;;;;5015609;28;20033;-85
2021/04/18 10:25:36;;;;;;;19.83;15.30;;;13.00;52.80;;;;;;5019118;28;20096;-85
2021/04/18 10:28:02;;;;;;;18.27;15.57;;;13.20;52.30;;;;;;5019362;28;20026;-85
2021/04/18 10:30:28;;;;;;;18.77;14.83;;;13.30;52.10;;;;;;5028303;28;20033;-84
2021/04/18 10:32:55;;;;;;;18.27;15.27;;;13.20;51.40;;;;;;5026939;28;20033;-85
2021/04/18 10:35:21;;;;;;;19.83;15.33;;;12.90;51.20;;;;;;5019161;28;20068;-85
2021/04/18 10:37:47;;;;;;;20.43;15.23;;;12.70;51.60;;;;;;5030016;28;20053;-84
2021/04/18 10:40:15;;;;;;;17.80;14.47;;;12.80;51.30;;;;;;5031585;28;20029;-85
2021/04/18 10:42:41;;;;;;;22.37;16.13;;;13.00;50.90;;;;;;5023763;28;20129;-84
2021/04/18 10:45:09;;;;;;;15.73;12.73;;;13.30;50.60;;;;;;5023894;28;20596;-85
2021/04/18 10:47:35;;;;;;;17.60;13.13;;;13.50;50.40;;;;;;5028682;28;20037;-85
2021/04/18 10:50:03;;;;;;;15.23;13.53;;;13.40;49.60;;;;;;5029786;28;20022;-85
2021/04/18 10:52:29;;;;;;;18.93;15.33;;;13.30;49.80;;;;;;5029542;28;20184;-85
2021/04/18 10:54:55;;;;;;;19.13;15.77;;;12.90;49.30;;;;;;5033979;28;20067;-86
2021/04/18 10:57:21;;;;;;;17.00;14.57;;;12.90;49.70;;;;;;5030117;28;20025;-85
2021/04/18 10:59:46;;;;;;;19.13;16.13;;;12.90;49.90;;;;;;5032405;28;20034;-85
2021/04/18 11:02:12;;;;;;;21.73;15.43;;;12.90;49.70;;;;;;5035865;28;20033;-85
2021/04/18 11:04:38;;;;;;;20.40;14.53;;;12.80;49.80;;;;;;5032103;28;20104;-85
2021/04/18 11:07:08;;;;;;;16.77;14.00;;;12.90;49.60;;;;;;5026509;28;20032;-85
2021/04/18 11:09:34;;;;;;;19.17;15.90;;;12.90;49.40;;;;;;5026116;28;20055;-85
2021/04/18 11:11:59;;;;;;;27.63;18.70;;;12.80;49.60;;;;;;5032935;28;20034;-85
2021/04/18 11:14:26;;;;;;;22.13;16.97;;;12.90;49.80;;;;;;5033847;28;20034;-86
2021/04/18 11:16:52;;;;;;;20.73;16.63;;;12.90;49.20;;;;;;5029993;28;20477;-86
2021/04/18 11:19:18;;;;;;;22.80;17.43;;;12.90;49.40;;;;;;5030368;28;20056;-85
2021/04/18 11:21:44;;;;;;;24.43;17.90;;;13.10;49.40;;;;;;5033140;28;20025;-85
2021/04/18 11:24:10;;;;;;;34.40;21.93;;;13.20;49.00;;;;;;5033674;28;20025;-86
2021/04/18 11:26:36;;;;;;;31.33;21.90;;;13.30;48.80;;;;;;5034519;28;20440;-86
2021/04/18 11:29:02;;;;;;;17.47;14.93;;;13.30;48.80;;;;;;5034382;28;20022;-86
2021/04/18 11:31:28;;;;;;;21.47;16.47;;;13.30;48.30;;;;;;5034996;28;20053;-85
2021/04/18 11:33:54;;;;;;;21.00;16.20;;;13.10;48.10;;;;;;5029244;28;20436;-85
2021/04/18 11:36:20;;;;;;;26.23;17.47;;;13.00;48.30;;;;;;5034278;28;20020;-86
2021/04/18 11:38:46;;;;;;;21.77;16.60;;;13.00;48.20;;;;;;5032460;28;20761;-84
2021/04/18 11:41:12;;;;;;;21.27;16.43;;;13.00;48.40;;;;;;5029822;28;20508;-83
2021/04/18 11:43:38;;;;;;;19.40;15.93;;;13.10;48.40;;;;;;5029763;28;20025;-85
2021/04/18 11:46:06;;;;;;;21.10;16.57;;;13.10;48.20;;;;;;5029688;28;20109;-84
2021/04/18 11:48:32;;;;;;;21.17;17.30;;;13.00;47.90;;;;;;5032447;28;20033;-86
2021/04/18 11:50:58;;;;;;;23.73;16.80;;;13.00;48.00;;;;;;5027538;28;20075;-86
2021/04/18 11:53:24;;;;;;;20.00;15.90;;;13.10;48.10;;;;;;5033131;28;20759;-85
2021/04/18 11:55:49;;;;;;;20.60;16.53;;;13.20;48.00;;;;;;5032270;28;20049;-85
2021/04/18 11:58:17;;;;;;;21.87;15.73;;;13.30;47.60;;;;;;5033131;28;20041;-86
2021/04/18 12:00:42;;;;;;;21.33;16.77;;;13.00;47.40;;;;;;5023487;28;20073;-85
2021/04/18 12:03:16;;;;;;;18.50;15.03;;;13.00;47.80;;;;;;5032751;28;20551;-85
2021/04/18 12:05:42;;;;;;;19.70;15.03;;;13.10;47.70;;;;;;5032204;28;20141;-85
2021/04/18 12:08:10;;;;;;;18.47;15.50;;;13.10;47.70;;;;;;5024864;28;20109;-85
2021/04/18 12:10:36;;;;;;;16.77;13.37;;;13.10;47.40;;;;;;5033953;28;20022;-85
2021/04/18 12:13:02;;;;;;;16.57;13.83;;;13.10;47.60;;;;;;5033703;28;20036;-85
2021/04/18 12:15:27;;;;;;;18.93;13.80;;;13.20;47.20;;;;;;5027275;28;20040;-85
2021/04/18 12:17:53;;;;;;;21.73;14.30;;;13.20;47.00;;;;;;5031241;28;20022;-85
2021/04/18 12:20:19;;;;;;;17.17;13.77;;;13.20;47.00;;;;;;5033419;28;20079;-85
2021/04/18 12:22:44;;;;;;;15.80;12.70;;;13.10;46.80;;;;;;5029054;28;20366;-85
2021/04/18 12:25:11;;;;;;;17.77;14.03;;;13.10;46.80;;;;;;5019974;28;20030;-85
2021/04/18 12:27:38;;;;;;;16.73;12.10;;;13.20;46.40;;;;;;5023138;28;20030;-85
2021/04/18 12:30:05;;;;;;;15.37;11.97;;;13.20;46.20;;;;;;5021383;28;20021;-85
2021/04/18 12:32:31;;;;;;;13.90;12.27;;;13.20;46.00;;;;;;5029410;28;20497;-84
2021/04/18 12:34:57;;;;;;;17.43;12.83;;;13.30;46.00;;;;;;5028614;28;20030;-85